sensor_id;sensor_type;location;lat;lon;timestamp;pressure;altitude;pressure_sealevel;temperature;humidity
34237;BME280;20501;45.956;13.632;2022-09-09T00:01:23;100383.66;;;20.14;78.74
34237;BME280;20501;45.956;13.632;2022-09-09T00:06:45;100383.06;;;20.45;78.11
34237;BME280;20501;45.956;13.632;2022-09-09T00:09:19;100379.66;;;20.36;78.22
34237;BME280;20501;45.956;13.632;2022-09-09T00:11:56;100377.56;;;20.38;78.40
34237;BME280;20501;45.956;13.632;2022-09-09T00:17:01;100365.13;;;20.42;78.21
34237;BME280;20501;45.956;13.632;2022-09-09T00:19:42;100364.66;;;20.12;77.73
34237;BME280;20501;45.956;13.632;2022-09-09T00:22:18;100364.72;;;20.46;77.79
34237;BME280;20501;45.956;13.632;2022-09-09T00:24:45;100366.78;;;20.17;77.59
34237;BME280;20501;45.956;13.632;2022-09-09T00:27:31;100366.09;;;19.39;79.24
34237;BME280;20501;45.956;13.632;2022-09-09T00:30:02;100372.03;;;19.49;79.52
34237;BME280;20501;45.956;13.632;2022-09-09T00:32:30;100370.78;;;19.52;79.06
34237;BME280;20501;45.956;13.632;2022-09-09T00:35:04;100378.03;;;19.73;77.85
34237;BME280;20501;45.956;13.632;2022-09-09T00:37:37;100368.88;;;19.53;78.22
34237;BME280;20501;45.956;13.632;2022-09-09T00:40:16;100368.53;;;19.62;77.61
34237;BME280;20501;45.956;13.632;2022-09-09T00:42:43;100367.34;;;19.37;78.62
34237;BME280;20501;45.956;13.632;2022-09-09T00:48:10;100350.88;;;19.30;79.83
34237;BME280;20501;45.956;13.632;2022-09-09T00:50:59;100365.53;;;19.57;79.42
34237;BME280;20501;45.956;13.632;2022-09-09T00:56:25;100359.19;;;19.08;79.43
34237;BME280;20501;45.956;13.632;2022-09-09T01:01:36;100363.91;;;19.21;79.25
34237;BME280;20501;45.956;13.632;2022-09-09T01:04:05;100359.00;;;19.10;79.27
34237;BME280;20501;45.956;13.632;2022-09-09T01:06:35;100354.63;;;19.22;78.54
34237;BME280;20501;45.956;13.632;2022-09-09T01:09:32;100359.78;;;19.39;79.95
34237;BME280;20501;45.956;13.632;2022-09-09T01:17:26;100358.72;;;19.40;77.72
34237;BME280;20501;45.956;13.632;2022-09-09T01:27:46;100363.66;;;19.58;79.43
34237;BME280;20501;45.956;13.632;2022-09-09T01:30:14;100361.38;;;19.68;78.25
34237;BME280;20501;45.956;13.632;2022-09-09T01:32:48;100352.06;;;19.62;76.44
34237;BME280;20501;45.956;13.632;2022-09-09T01:38:07;100356.41;;;20.05;77.42
34237;BME280;20501;45.956;13.632;2022-09-09T01:40:32;100354.03;;;19.82;78.21
34237;BME280;20501;45.956;13.632;2022-09-09T01:42:58;100354.31;;;20.07;77.82
34237;BME280;20501;45.956;13.632;2022-09-09T01:45:24;100343.91;;;19.83;76.49
34237;BME280;20501;45.956;13.632;2022-09-09T01:47:52;100349.53;;;19.54;79.20
34237;BME280;20501;45.956;13.632;2022-09-09T01:50:18;100342.00;;;19.28;78.44
34237;BME280;20501;45.956;13.632;2022-09-09T01:52:46;100344.84;;;19.48;77.84
34237;BME280;20501;45.956;13.632;2022-09-09T01:55:12;100339.56;;;19.40;78.89
34237;BME280;20501;45.956;13.632;2022-09-09T02:00:13;100334.66;;;19.28;78.99
34237;BME280;20501;45.956;13.632;2022-09-09T02:02:53;100339.75;;;19.31;79.13
34237;BME280;20501;45.956;13.632;2022-09-09T02:07:58;100336.69;;;19.61;77.40
34237;BME280;20501;45.956;13.632;2022-09-09T02:10:32;100332.22;;;19.54;77.29
34237;BME280;20501;45.956;13.632;2022-09-09T02:13:12;100333.78;;;19.21;78.89
34237;BME280;20501;45.956;13.632;2022-09-09T02:16:00;100328.19;;;19.43;79.63
34237;BME280;20501;45.956;13.632;2022-09-09T02:18:51;100336.16;;;19.38;78.77
34237;BME280;20501;45.956;13.632;2022-09-09T02:21:18;100331.53;;;19.31;78.49
34237;BME280;20501;45.956;13.632;2022-09-09T02:23:47;100333.97;;;19.68;77.62
34237;BME280;20501;45.956;13.632;2022-09-09T02:26:14;100334.75;;;19.55;79.47
34237;BME280;20501;45.956;13.632;2022-09-09T02:28:46;100330.88;;;19.91;77.40
34237;BME280;20501;45.956;13.632;2022-09-09T02:31:14;100338.19;;;19.71;78.66
34237;BME280;20501;45.956;13.632;2022-09-09T02:33:45;100338.84;;;19.79;75.98
34237;BME280;20501;45.956;13.632;2022-09-09T02:36:13;100348.00;;;19.45;77.80
34237;BME280;20501;45.956;13.632;2022-09-09T02:38:45;100353.56;;;19.72;78.56
34237;BME280;20501;45.956;13.632;2022-09-09T02:41:17;100353.28;;;19.46;80.12
34237;BME280;20501;45.956;13.632;2022-09-09T02:43:43;100348.44;;;19.48;78.22
34237;BME280;20501;45.956;13.632;2022-09-09T02:46:27;100342.59;;;19.10;80.63
34237;BME280;20501;45.956;13.632;2022-09-09T02:49:08;100333.38;;;19.79;79.28
34237;BME280;20501;45.956;13.632;2022-09-09T02:56:52;100317.09;;;19.71;79.16
34237;BME280;20501;45.956;13.632;2022-09-09T02:59:20;100320.06;;;19.14;81.25
34237;BME280;20501;45.956;13.632;2022-09-09T03:01:46;100320.19;;;19.48;80.18
34237;BME280;20501;45.956;13.632;2022-09-09T03:04:12;100305.38;;;20.04;77.75
34237;BME280;20501;45.956;13.632;2022-09-09T03:06:38;100313.66;;;19.49;79.57
34237;BME280;20501;45.956;13.632;2022-09-09T03:09:03;100313.75;;;19.21;79.03
34237;BME280;20501;45.956;13.632;2022-09-09T03:11:30;100307.22;;;19.70;79.00
34237;BME280;20501;45.956;13.632;2022-09-09T03:13:55;100303.41;;;19.64;77.50
34237;BME280;20501;45.956;13.632;2022-09-09T03:16:24;100305.94;;;19.73;79.31
34237;BME280;20501;45.956;13.632;2022-09-09T03:18:49;100304.94;;;19.87;78.39
34237;BME280;20501;45.956;13.632;2022-09-09T03:21:15;100306.53;;;19.61;79.54
34237;BME280;20501;45.956;13.632;2022-09-09T03:23:40;100301.88;;;19.00;80.19
34237;BME280;20501;45.956;13.632;2022-09-09T03:26:06;100307.97;;;18.95;80.71
34237;BME280;20501;45.956;13.632;2022-09-09T03:28:32;100309.03;;;19.01;80.03
34237;BME280;20501;45.956;13.632;2022-09-09T03:31:03;100313.88;;;19.47;80.19
34237;BME280;20501;45.956;13.632;2022-09-09T03:33:29;100318.84;;;19.24;81.07
34237;BME280;20501;45.956;13.632;2022-09-09T03:35:55;100306.84;;;18.90;80.92
34237;BME280;20501;45.956;13.632;2022-09-09T03:38:24;100307.50;;;18.92;80.94
34237;BME280;20501;45.956;13.632;2022-09-09T03:40:55;100307.97;;;19.51;80.02
34237;BME280;20501;45.956;13.632;2022-09-09T03:43:22;100310.41;;;19.87;78.64
34237;BME280;20501;45.956;13.632;2022-09-09T03:45:48;100306.59;;;19.20;79.11
34237;BME280;20501;45.956;13.632;2022-09-09T03:48:15;100319.63;;;19.11;80.75
34237;BME280;20501;45.956;13.632;2022-09-09T03:50:48;100313.72;;;19.14;79.94
34237;BME280;20501;45.956;13.632;2022-09-09T03:53:15;100313.75;;;19.76;78.94
34237;BME280;20501;45.956;13.632;2022-09-09T03:55:44;100317.84;;;19.45;78.63
34237;BME280;20501;45.956;13.632;2022-09-09T03:58:11;100317.88;;;18.96;80.15
34237;BME280;20501;45.956;13.632;2022-09-09T04:00:36;100308.03;;;19.09;80.77
34237;BME280;20501;45.956;13.632;2022-09-09T04:03:02;100314.59;;;19.14;79.56
34237;BME280;20501;45.956;13.632;2022-09-09T04:05:27;100304.19;;;18.96;80.77
34237;BME280;20501;45.956;13.632;2022-09-09T04:07:53;100297.34;;;18.85;80.42
34237;BME280;20501;45.956;13.632;2022-09-09T04:10:19;100301.91;;;19.07;81.05
34237;BME280;20501;45.956;13.632;2022-09-09T04:12:46;100295.78;;;19.05;81.30
34237;BME280;20501;45.956;13.632;2022-09-09T04:15:11;100303.22;;;19.11;80.03
34237;BME280;20501;45.956;13.632;2022-09-09T04:17:36;100302.00;;;19.89;78.52
34237;BME280;20501;45.956;13.632;2022-09-09T04:20:02;100299.16;;;19.48;79.22
34237;BME280;20501;45.956;13.632;2022-09-09T04:22:28;100293.75;;;18.85;81.95
34237;BME280;20501;45.956;13.632;2022-09-09T04:24:53;100294.59;;;18.50;82.81
34237;BME280;20501;45.956;13.632;2022-09-09T04:27:18;100304.47;;;19.15;81.38
34237;BME280;20501;45.956;13.632;2022-09-09T04:29:44;100298.53;;;19.05;80.74
34237;BME280;20501;45.956;13.632;2022-09-09T04:32:09;100294.84;;;18.91;81.91
34237;BME280;20501;45.956;13.632;2022-09-09T04:34:35;100294.75;;;18.77;82.92
34237;BME280;20501;45.956;13.632;2022-09-09T04:37:00;100297.47;;;18.70;82.55
34237;BME280;20501;45.956;13.632;2022-09-09T04:39:26;100299.72;;;19.30;80.70
34237;BME280;20501;45.956;13.632;2022-09-09T04:41:51;100303.22;;;19.79;78.15
34237;BME280;20501;45.956;13.632;2022-09-09T04:44:17;100300.06;;;18.85;82.06
34237;BME280;20501;45.956;13.632;2022-09-09T04:46:42;100293.50;;;18.80;81.91
34237;BME280;20501;45.956;13.632;2022-09-09T04:49:08;100296.97;;;18.60;83.28
34237;BME280;20501;45.956;13.632;2022-09-09T04:51:33;100290.31;;;19.05;82.04
34237;BME280;20501;45.956;13.632;2022-09-09T04:53:59;100291.63;;;19.09;81.58
34237;BME280;20501;45.956;13.632;2022-09-09T04:56:24;100288.03;;;19.70;79.41
34237;BME280;20501;45.956;13.632;2022-09-09T04:58:52;100290.25;;;19.40;80.63
34237;BME280;20501;45.956;13.632;2022-09-09T05:01:19;100291.97;;;19.47;78.96
34237;BME280;20501;45.956;13.632;2022-09-09T05:03:46;100298.75;;;18.75;82.57
34237;BME280;20501;45.956;13.632;2022-09-09T05:06:15;100296.13;;;19.37;80.62
34237;BME280;20501;45.956;13.632;2022-09-09T05:08:42;100299.44;;;19.18;80.81
34237;BME280;20501;45.956;13.632;2022-09-09T05:11:15;100307.28;;;19.28;81.32
34237;BME280;20501;45.956;13.632;2022-09-09T05:13:41;100291.56;;;19.02;81.54
34237;BME280;20501;45.956;13.632;2022-09-09T05:16:06;100285.78;;;18.90;82.55
34237;BME280;20501;45.956;13.632;2022-09-09T05:18:32;100291.34;;;19.52;80.11
34237;BME280;20501;45.956;13.632;2022-09-09T05:21:00;100292.94;;;19.95;78.43
34237;BME280;20501;45.956;13.632;2022-09-09T05:23:26;100289.06;;;19.69;79.35
34237;BME280;20501;45.956;13.632;2022-09-09T05:25:56;100287.19;;;19.83;79.22
34237;BME280;20501;45.956;13.632;2022-09-09T05:28:22;100289.91;;;19.70;79.68
34237;BME280;20501;45.956;13.632;2022-09-09T05:30:58;100286.66;;;19.39;80.78
34237;BME280;20501;45.956;13.632;2022-09-09T05:33:24;100291.22;;;19.87;79.14
34237;BME280;20501;45.956;13.632;2022-09-09T05:36:03;100286.75;;;19.73;79.71
34237;BME280;20501;45.956;13.632;2022-09-09T05:38:30;100283.66;;;20.03;78.19
34237;BME280;20501;45.956;13.632;2022-09-09T05:40:56;100275.09;;;19.37;81.53
34237;BME280;20501;45.956;13.632;2022-09-09T05:43:25;100291.88;;;19.27;83.16
34237;BME280;20501;45.956;13.632;2022-09-09T05:46:04;100286.56;;;19.81;79.34
34237;BME280;20501;45.956;13.632;2022-09-09T05:48:30;100290.19;;;20.02;79.12
34237;BME280;20501;45.956;13.632;2022-09-09T05:50:56;100313.06;;;19.60;81.76
34237;BME280;20501;45.956;13.632;2022-09-09T05:53:21;100313.94;;;19.74;80.82
34237;BME280;20501;45.956;13.632;2022-09-09T05:55:47;100312.06;;;19.75;80.88
34237;BME280;20501;45.956;13.632;2022-09-09T05:58:13;100296.72;;;20.01;79.01
34237;BME280;20501;45.956;13.632;2022-09-09T06:00:40;100297.81;;;20.26;77.27
34237;BME280;20501;45.956;13.632;2022-09-09T06:03:05;100294.19;;;20.19;78.99
34237;BME280;20501;45.956;13.632;2022-09-09T06:05:31;100298.63;;;19.93;79.88
34237;BME280;20501;45.956;13.632;2022-09-09T06:07:56;100301.09;;;19.82;80.38
34237;BME280;20501;45.956;13.632;2022-09-09T06:10:22;100281.50;;;19.85;80.09
34237;BME280;20501;45.956;13.632;2022-09-09T06:12:47;100289.78;;;19.98;79.54
34237;BME280;20501;45.956;13.632;2022-09-09T06:15:13;100299.91;;;19.91;82.08
34237;BME280;20501;45.956;13.632;2022-09-09T06:17:38;100301.94;;;19.82;83.13
34237;BME280;20501;45.956;13.632;2022-09-09T06:20:04;100308.13;;;20.24;78.44
34237;BME280;20501;45.956;13.632;2022-09-09T06:22:30;100316.78;;;20.21;82.11
34237;BME280;20501;45.956;13.632;2022-09-09T06:24:56;100322.25;;;19.94;82.36
34237;BME280;20501;45.956;13.632;2022-09-09T06:27:21;100327.66;;;19.81;83.32
34237;BME280;20501;45.956;13.632;2022-09-09T06:29:47;100320.03;;;19.63;82.77
34237;BME280;20501;45.956;13.632;2022-09-09T06:32:13;100317.47;;;19.48;82.68
34237;BME280;20501;45.956;13.632;2022-09-09T06:34:38;100307.72;;;19.39;84.07
34237;BME280;20501;45.956;13.632;2022-09-09T06:37:04;100296.34;;;19.35;84.43
34237;BME280;20501;45.956;13.632;2022-09-09T06:39:31;100300.22;;;19.54;83.90
34237;BME280;20501;45.956;13.632;2022-09-09T06:41:56;100298.22;;;19.34;85.48
34237;BME280;20501;45.956;13.632;2022-09-09T06:44:23;100296.41;;;19.55;83.66
34237;BME280;20501;45.956;13.632;2022-09-09T06:46:51;100299.28;;;19.95;82.07
34237;BME280;20501;45.956;13.632;2022-09-09T06:49:16;100303.38;;;19.58;85.86
34237;BME280;20501;45.956;13.632;2022-09-09T06:51:41;100289.53;;;19.79;84.16
34237;BME280;20501;45.956;13.632;2022-09-09T06:54:09;100290.59;;;19.85;83.56
34237;BME280;20501;45.956;13.632;2022-09-09T06:56:37;100285.34;;;19.90;82.77
34237;BME280;20501;45.956;13.632;2022-09-09T06:59:06;100290.22;;;20.08;80.36
34237;BME280;20501;45.956;13.632;2022-09-09T07:01:36;100292.31;;;19.86;83.59
34237;BME280;20501;45.956;13.632;2022-09-09T07:04:03;100292.47;;;19.85;83.61
34237;BME280;20501;45.956;13.632;2022-09-09T07:06:38;100290.81;;;19.90;83.13
34237;BME280;20501;45.956;13.632;2022-09-09T07:09:06;100287.47;;;20.02;81.49
34237;BME280;20501;45.956;13.632;2022-09-09T07:11:43;100289.75;;;19.91;82.82
34237;BME280;20501;45.956;13.632;2022-09-09T07:14:09;100301.34;;;19.87;82.51
34237;BME280;20501;45.956;13.632;2022-09-09T07:16:42;100303.28;;;20.06;80.44
34237;BME280;20501;45.956;13.632;2022-09-09T07:19:08;100306.00;;;19.86;83.38
34237;BME280;20501;45.956;13.632;2022-09-09T07:21:34;100311.00;;;19.83;82.55
34237;BME280;20501;45.956;13.632;2022-09-09T07:23:59;100307.66;;;19.80;82.01
34237;BME280;20501;45.956;13.632;2022-09-09T07:26:27;100313.63;;;19.98;81.19
34237;BME280;20501;45.956;13.632;2022-09-09T07:28:54;100328.56;;;19.88;82.38
34237;BME280;20501;45.956;13.632;2022-09-09T07:31:27;100334.00;;;19.75;84.58
34237;BME280;20501;45.956;13.632;2022-09-09T07:33:53;100343.72;;;19.84;83.35
34237;BME280;20501;45.956;13.632;2022-09-09T07:36:22;100334.44;;;19.85;82.98
34237;BME280;20501;45.956;13.632;2022-09-09T07:38:59;100321.53;;;19.79;84.27
34237;BME280;20501;45.956;13.632;2022-09-09T07:41:42;100334.69;;;19.90;82.09
34237;BME280;20501;45.956;13.632;2022-09-09T07:44:14;100328.34;;;19.90;83.39
34237;BME280;20501;45.956;13.632;2022-09-09T07:46:41;100332.19;;;20.02;83.67
34237;BME280;20501;45.956;13.632;2022-09-09T07:49:07;100360.22;;;20.04;81.44
34237;BME280;20501;45.956;13.632;2022-09-09T07:51:39;100375.16;;;19.88;84.05
34237;BME280;20501;45.956;13.632;2022-09-09T07:54:07;100356.63;;;20.04;81.42
34237;BME280;20501;45.956;13.632;2022-09-09T07:56:35;100358.34;;;20.25;80.24
34237;BME280;20501;45.956;13.632;2022-09-09T07:59:01;100355.13;;;19.88;86.06
34237;BME280;20501;45.956;13.632;2022-09-09T08:01:35;100351.47;;;19.74;84.77
34237;BME280;20501;45.956;13.632;2022-09-09T08:04:07;100347.91;;;19.80;84.66
34237;BME280;20501;45.956;13.632;2022-09-09T08:06:38;100355.91;;;19.75;84.58
34237;BME280;20501;45.956;13.632;2022-09-09T08:09:05;100351.88;;;19.71;83.37
34237;BME280;20501;45.956;13.632;2022-09-09T08:11:31;100345.38;;;19.78;83.04
34237;BME280;20501;45.956;13.632;2022-09-09T08:13:58;100329.88;;;20.06;81.85
34237;BME280;20501;45.956;13.632;2022-09-09T08:16:34;100317.19;;;20.25;80.32
34237;BME280;20501;45.956;13.632;2022-09-09T08:19:02;100323.97;;;20.29;80.08
34237;BME280;20501;45.956;13.632;2022-09-09T08:21:30;100327.75;;;20.21;81.58
34237;BME280;20501;45.956;13.632;2022-09-09T08:23:58;100306.66;;;20.08;83.48
34237;BME280;20501;45.956;13.632;2022-09-09T08:26:33;100320.78;;;19.92;84.94
34237;BME280;20501;45.956;13.632;2022-09-09T08:29:01;100331.31;;;19.95;84.41
34237;BME280;20501;45.956;13.632;2022-09-09T08:31:35;100310.00;;;19.97;84.91
34237;BME280;20501;45.956;13.632;2022-09-09T08:34:01;100305.38;;;19.91;85.29
34237;BME280;20501;45.956;13.632;2022-09-09T08:36:32;100308.31;;;19.89;86.02
34237;BME280;20501;45.956;13.632;2022-09-09T08:39:03;100328.09;;;19.85;85.90
34237;BME280;20501;45.956;13.632;2022-09-09T08:57:53;100313.75;;;19.76;85.29
34237;BME280;20501;45.956;13.632;2022-09-09T09:00:20;100305.66;;;19.41;87.83
34237;BME280;20501;45.956;13.632;2022-09-09T09:16:02;100315.06;;;19.93;83.27
34237;BME280;20501;45.956;13.632;2022-09-09T09:18:31;100333.09;;;19.68;84.38
34237;BME280;20501;45.956;13.632;2022-09-09T09:21:35;100345.38;;;19.78;85.60
34237;BME280;20501;45.956;13.632;2022-09-09T09:24:07;100355.00;;;19.54;87.81
34237;BME280;20501;45.956;13.632;2022-09-09T09:26:41;100346.31;;;19.51;87.21
34237;BME280;20501;45.956;13.632;2022-09-09T09:29:13;100349.22;;;19.36;88.44
34237;BME280;20501;45.956;13.632;2022-09-09T09:31:44;100362.13;;;19.42;86.59
34237;BME280;20501;45.956;13.632;2022-09-09T09:34:10;100358.13;;;19.44;85.91
34237;BME280;20501;45.956;13.632;2022-09-09T09:36:59;100350.91;;;19.37;85.49
34237;BME280;20501;45.956;13.632;2022-09-09T09:39:32;100343.25;;;18.90;86.54
34237;BME280;20501;45.956;13.632;2022-09-09T09:42:09;100329.09;;;18.80;87.97
34237;BME280;20501;45.956;13.632;2022-09-09T09:44:36;100348.88;;;18.82;87.96
34237;BME280;20501;45.956;13.632;2022-09-09T09:47:13;100339.88;;;19.16;86.32
34237;BME280;20501;45.956;13.632;2022-09-09T09:49:51;100369.47;;;18.99;87.26
34237;BME280;20501;45.956;13.632;2022-09-09T09:52:17;100369.25;;;19.36;86.29
34237;BME280;20501;45.956;13.632;2022-09-09T09:54:46;100375.38;;;19.45;86.52
34237;BME280;20501;45.956;13.632;2022-09-09T09:57:13;100384.06;;;19.48;85.36
34237;BME280;20501;45.956;13.632;2022-09-09T09:59:40;100389.03;;;19.31;87.27
34237;BME280;20501;45.956;13.632;2022-09-09T10:04:41;100393.38;;;19.19;87.62
34237;BME280;20501;45.956;13.632;2022-09-09T10:07:18;100397.38;;;19.23;86.67
34237;BME280;20501;45.956;13.632;2022-09-09T10:09:45;100423.97;;;19.29;84.71
34237;BME280;20501;45.956;13.632;2022-09-09T10:12:27;100446.94;;;19.28;85.33
34237;BME280;20501;45.956;13.632;2022-09-09T10:22:50;100377.06;;;19.46;87.26
34237;BME280;20501;45.956;13.632;2022-09-09T10:28:10;100367.19;;;20.20;81.31
34237;BME280;20501;45.956;13.632;2022-09-09T10:30:50;100376.88;;;20.03;83.20
34237;BME280;20501;45.956;13.632;2022-09-09T10:36:12;100355.59;;;20.25;84.38
34237;BME280;20501;45.956;13.632;2022-09-09T10:38:45;100356.63;;;20.04;85.70
34237;BME280;20501;45.956;13.632;2022-09-09T10:41:13;100361.91;;;20.12;83.37
34237;BME280;20501;45.956;13.632;2022-09-09T10:46:35;100346.13;;;20.28;85.52
34237;BME280;20501;45.956;13.632;2022-09-09T10:57:36;100331.56;;;20.47;86.14
34237;BME280;20501;45.956;13.632;2022-09-09T11:00:13;100328.19;;;20.52;85.76
34237;BME280;20501;45.956;13.632;2022-09-09T11:02:41;100337.88;;;20.68;85.73
34237;BME280;20501;45.956;13.632;2022-09-09T11:05:20;100328.59;;;20.89;86.77
34237;BME280;20501;45.956;13.632;2022-09-09T11:11:27;100321.59;;;21.00;83.24
34237;BME280;20501;45.956;13.632;2022-09-09T11:18:40;100316.31;;;21.05;81.80
34237;BME280;20501;45.956;13.632;2022-09-09T11:21:23;100300.41;;;21.14;81.31
34237;BME280;20501;45.956;13.632;2022-09-09T11:23:57;100313.06;;;21.22;81.98
34237;BME280;20501;45.956;13.632;2022-09-09T11:26:53;100316.06;;;21.13;79.78
34237;BME280;20501;45.956;13.632;2022-09-09T11:37:37;100305.13;;;20.93;78.45
34237;BME280;20501;45.956;13.632;2022-09-09T11:42:47;100303.16;;;21.07;80.14
34237;BME280;20501;45.956;13.632;2022-09-09T11:45:25;100296.63;;;21.01;79.96
34237;BME280;20501;45.956;13.632;2022-09-09T11:47:54;100292.66;;;21.04;80.38
34237;BME280;20501;45.956;13.632;2022-09-09T11:52:46;100302.47;;;21.25;80.89
34237;BME280;20501;45.956;13.632;2022-09-09T11:55:25;100301.56;;;21.38;79.26
34237;BME280;20501;45.956;13.632;2022-09-09T11:58:02;100292.84;;;21.61;78.24
34237;BME280;20501;45.956;13.632;2022-09-09T12:00:36;100296.88;;;21.52;77.45
34237;BME280;20501;45.956;13.632;2022-09-09T12:03:05;100292.59;;;21.63;79.16
34237;BME280;20501;45.956;13.632;2022-09-09T12:05:42;100296.22;;;21.63;78.82
34237;BME280;20501;45.956;13.632;2022-09-09T12:08:11;100297.66;;;21.66;77.01
34237;BME280;20501;45.956;13.632;2022-09-09T12:10:56;100290.47;;;21.58;78.24
34237;BME280;20501;45.956;13.632;2022-09-09T12:13:23;100286.97;;;21.44;78.80
34237;BME280;20501;45.956;13.632;2022-09-09T12:18:25;100278.41;;;21.66;78.99
34237;BME280;20501;45.956;13.632;2022-09-09T12:24:09;100265.38;;;21.87;78.99
34237;BME280;20501;45.956;13.632;2022-09-09T12:32:10;100250.53;;;21.94;76.68
34237;BME280;20501;45.956;13.632;2022-09-09T12:34:40;100241.22;;;21.95;77.63
34237;BME280;20501;45.956;13.632;2022-09-09T12:37:29;100240.00;;;22.10;76.64
34237;BME280;20501;45.956;13.632;2022-09-09T12:39:58;100249.50;;;22.14;77.99
34237;BME280;20501;45.956;13.632;2022-09-09T12:42:25;100235.25;;;22.24;74.83
34237;BME280;20501;45.956;13.632;2022-09-09T12:44:59;100229.19;;;22.15;74.47
34237;BME280;20501;45.956;13.632;2022-09-09T12:47:42;100219.31;;;21.82;76.75
34237;BME280;20501;45.956;13.632;2022-09-09T12:50:31;100213.53;;;21.90;76.35
34237;BME280;20501;45.956;13.632;2022-09-09T12:53:00;100203.88;;;22.06;78.90
34237;BME280;20501;45.956;13.632;2022-09-09T12:55:32;100209.16;;;22.08;77.62
34237;BME280;20501;45.956;13.632;2022-09-09T12:57:59;100201.84;;;22.46;75.07
34237;BME280;20501;45.956;13.632;2022-09-09T13:00:26;100204.66;;;22.76;70.56
34237;BME280;20501;45.956;13.632;2022-09-09T13:03:00;100196.03;;;22.54;72.66
34237;BME280;20501;45.956;13.632;2022-09-09T13:05:35;100206.50;;;22.45;70.89
34237;BME280;20501;45.956;13.632;2022-09-09T13:08:05;100206.41;;;22.52;69.43
34237;BME280;20501;45.956;13.632;2022-09-09T13:10:35;100209.47;;;22.62;66.06
34237;BME280;20501;45.956;13.632;2022-09-09T13:13:04;100190.13;;;22.69;65.11
34237;BME280;20501;45.956;13.632;2022-09-09T13:15:32;100180.28;;;22.61;67.25
34237;BME280;20501;45.956;13.632;2022-09-09T13:17:59;100177.38;;;22.56;67.18
34237;BME280;20501;45.956;13.632;2022-09-09T13:20:27;100172.25;;;22.60;65.90
34237;BME280;20501;45.956;13.632;2022-09-09T13:22:54;100166.06;;;22.46;69.49
34237;BME280;20501;45.956;13.632;2022-09-09T13:25:26;100165.19;;;22.64;65.95
34237;BME280;20501;45.956;13.632;2022-09-09T13:27:56;100151.72;;;22.74;63.65
34237;BME280;20501;45.956;13.632;2022-09-09T13:30:26;100136.59;;;22.65;63.69
34237;BME280;20501;45.956;13.632;2022-09-09T13:38:14;100144.81;;;22.53;63.42
34237;BME280;20501;45.956;13.632;2022-09-09T13:40:40;100147.94;;;22.56;63.31
34237;BME280;20501;45.956;13.632;2022-09-09T13:43:21;100146.31;;;22.49;63.37
34237;BME280;20501;45.956;13.632;2022-09-09T13:46:23;100165.06;;;22.59;62.35
34237;BME280;20501;45.956;13.632;2022-09-09T13:48:57;100180.94;;;22.38;63.96
34237;BME280;20501;45.956;13.632;2022-09-09T13:51:43;100174.88;;;22.29;65.75
34237;BME280;20501;45.956;13.632;2022-09-09T13:54:14;100170.44;;;22.28;64.16
34237;BME280;20501;45.956;13.632;2022-09-09T13:56:41;100166.56;;;22.36;63.47
34237;BME280;20501;45.956;13.632;2022-09-09T13:59:17;100155.38;;;22.31;63.26
34237;BME280;20501;45.956;13.632;2022-09-09T14:01:45;100166.38;;;22.31;62.75
34237;BME280;20501;45.956;13.632;2022-09-09T14:04:10;100167.88;;;22.33;64.12
34237;BME280;20501;45.956;13.632;2022-09-09T14:06:36;100181.25;;;22.30;64.55
34237;BME280;20501;45.956;13.632;2022-09-09T14:09:05;100165.94;;;22.34;64.12
34237;BME280;20501;45.956;13.632;2022-09-09T14:11:31;100161.56;;;22.26;64.45
34237;BME280;20501;45.956;13.632;2022-09-09T14:13:56;100161.13;;;22.29;64.59
34237;BME280;20501;45.956;13.632;2022-09-09T14:16:21;100170.44;;;22.28;66.61
34237;BME280;20501;45.956;13.632;2022-09-09T14:18:47;100168.06;;;22.32;65.52
34237;BME280;20501;45.956;13.632;2022-09-09T14:21:13;100161.88;;;22.36;64.34
34237;BME280;20501;45.956;13.632;2022-09-09T14:23:39;100156.63;;;22.16;65.60
34237;BME280;20501;45.956;13.632;2022-09-09T14:26:05;100146.06;;;22.32;65.67
34237;BME280;20501;45.956;13.632;2022-09-09T14:28:31;100143.09;;;22.33;63.95
34237;BME280;20501;45.956;13.632;2022-09-09T14:31:01;100151.56;;;22.32;65.44
34237;BME280;20501;45.956;13.632;2022-09-09T14:33:27;100154.47;;;22.37;64.35
34237;BME280;20501;45.956;13.632;2022-09-09T14:36:02;100165.13;;;22.33;64.43
34237;BME280;20501;45.956;13.632;2022-09-09T14:38:36;100183.91;;;21.92;67.79
34237;BME280;20501;45.956;13.632;2022-09-09T14:41:06;100194.47;;;21.95;68.64
34237;BME280;20501;45.956;13.632;2022-09-09T14:43:31;100178.16;;;21.37;70.10
34237;BME280;20501;45.956;13.632;2022-09-09T14:46:04;100177.09;;;21.06;71.13
34237;BME280;20501;45.956;13.632;2022-09-09T14:48:37;100172.25;;;21.01;72.23
34237;BME280;20501;45.956;13.632;2022-09-09T14:51:13;100188.69;;;21.08;72.21
34237;BME280;20501;45.956;13.632;2022-09-09T14:53:41;100199.75;;;20.87;71.44
34237;BME280;20501;45.956;13.632;2022-09-09T14:56:12;100189.88;;;20.73;70.43
34237;BME280;20501;45.956;13.632;2022-09-09T14:58:38;100190.16;;;20.51;73.04
34237;BME280;20501;45.956;13.632;2022-09-09T15:01:08;100200.78;;;20.21;74.19
34237;BME280;20501;45.956;13.632;2022-09-09T15:03:38;100212.56;;;20.21;75.91
34237;BME280;20501;45.956;13.632;2022-09-09T15:06:05;100238.28;;;19.80;77.88
34237;BME280;20501;45.956;13.632;2022-09-09T15:08:30;100254.28;;;19.70;80.51
34237;BME280;20501;45.956;13.632;2022-09-09T15:11:01;100242.91;;;19.66;80.90